createdAt,value
2022-11-19T00:02:05.554Z,99712.56
2022-11-19T00:04:33.771Z,99722.25
2022-11-19T00:07:01.795Z,99735.09
2022-11-19T00:09:31.590Z,99738.19
2022-11-19T00:12:17.071Z,99744.38
2022-11-19T00:14:45.120Z,99741.88
2022-11-19T00:17:12.930Z,99744.00
2022-11-19T00:19:40.853Z,99733.53
2022-11-19T00:22:08.688Z,99730.09
2022-11-19T00:24:39.535Z,99732.13
2022-11-19T00:27:10.182Z,99730.91
2022-11-19T00:29:38.168Z,99731.16
2022-11-19T00:32:07.807Z,99723.41
2022-11-19T00:34:35.986Z,99723.53
2022-11-19T00:37:05.207Z,99712.56
2022-11-19T00:39:33.185Z,99709.25
2022-11-19T00:42:05.228Z,99716.97
2022-11-19T00:44:37.186Z,99714.09
2022-11-19T00:47:05.954Z,99717.97
2022-11-19T00:49:33.907Z,99724.66
2022-11-19T00:52:03.942Z,99726.44
2022-11-19T00:54:32.014Z,99737.97
2022-11-19T00:57:00.001Z,99743.00
2022-11-19T00:59:29.711Z,99734.09
2022-11-19T01:01:57.761Z,99742.28
2022-11-19T01:04:26.247Z,99737.75
2022-11-19T01:06:56.100Z,99743.72
2022-11-19T01:09:24.827Z,99746.31
2022-11-19T01:11:52.732Z,99751.44
2022-11-19T01:14:20.698Z,99735.66
2022-11-19T01:16:49.949Z,99745.25
2022-11-19T01:19:18.178Z,99733.72
2022-11-19T01:21:47.024Z,99732.53
2022-11-19T01:24:15.016Z,99730.75
2022-11-19T01:26:45.874Z,99742.78
2022-11-19T01:29:14.462Z,99745.31
2022-11-19T01:31:42.645Z,99746.13
2022-11-19T01:34:12.310Z,99752.06
2022-11-19T01:36:40.379Z,99755.44
2022-11-19T01:39:08.690Z,99761.47
2022-11-19T01:41:36.745Z,99760.41
2022-11-19T01:44:07.138Z,99762.22
2022-11-19T01:46:36.988Z,99760.66
2022-11-19T01:49:08.344Z,99759.81
2022-11-19T01:51:42.661Z,99764.69
2022-11-19T01:54:16.966Z,99770.63
2022-11-19T01:56:46.164Z,99763.25
2022-11-19T01:59:18.035Z,99772.03
2022-11-19T02:01:46.628Z,99769.31
2022-11-19T02:04:17.471Z,99765.59
2022-11-19T02:06:47.514Z,99773.41
2022-11-19T02:09:18.240Z,99767.34
2022-11-19T02:12:03.448Z,99779.25
2022-11-19T02:14:55.008Z,99769.00
2022-11-19T02:17:40.713Z,99777.22
2022-11-19T02:20:34.216Z,99780.19
2022-11-19T02:23:32.455Z,99782.00
2022-11-19T02:26:48.048Z,99777.91
2022-11-19T02:29:27.610Z,99789.28
2022-11-19T02:32:01.880Z,99790.75
2022-11-19T02:34:35.925Z,99796.69
2022-11-19T02:37:11.527Z,99803.47
2022-11-19T02:39:42.464Z,99800.88
2022-11-19T02:42:17.842Z,99811.22
2022-11-19T02:45:02.382Z,99801.38
2022-11-19T02:47:38.363Z,99799.91
2022-11-19T02:50:14.526Z,99792.41
2022-11-19T02:52:43.997Z,99786.38
2022-11-19T02:55:13.254Z,99793.19
2022-11-19T02:57:42.347Z,99789.84
2022-11-19T03:00:28.642Z,99789.34
2022-11-19T03:03:28.244Z,99792.28
2022-11-19T03:06:01.901Z,99795.88
2022-11-19T03:08:30.468Z,99802.25
2022-11-19T03:11:09.353Z,99808.09
2022-11-19T03:14:06.049Z,99809.56
2022-11-19T03:16:43.255Z,99823.59
2022-11-19T03:19:21.707Z,99815.84
2022-11-19T03:21:55.904Z,99823.69
2022-11-19T03:24:30.475Z,99821.91
2022-11-19T03:27:05.252Z,99836.44
2022-11-19T03:29:37.476Z,99831.53
2022-11-19T03:32:11.574Z,99835.34
2022-11-19T03:34:44.500Z,99838.38
2022-11-19T03:37:16.523Z,99831.25
2022-11-19T03:39:45.867Z,99825.78
2022-11-19T03:42:17.773Z,99834.47
2022-11-19T03:44:50.382Z,99838.88
2022-11-19T03:47:22.826Z,99842.75
2022-11-19T03:49:58.456Z,99836.09
2022-11-19T03:52:26.798Z,99849.28
2022-11-19T03:54:54.726Z,99844.13
2022-11-19T03:57:25.855Z,99846.66
2022-11-19T03:59:53.964Z,99853.97
2022-11-19T04:02:22.379Z,99858.69
2022-11-19T04:04:50.348Z,99859.53
2022-11-19T04:07:22.788Z,99864.66
2022-11-19T04:09:51.274Z,99874.38
2022-11-19T04:12:21.641Z,99870.66
2022-11-19T04:14:50.792Z,99875.56
2022-11-19T04:17:20.209Z,99874.22
2022-11-19T04:19:48.586Z,99879.22
2022-11-19T04:22:16.895Z,99875.44
2022-11-19T04:24:46.216Z,99875.97
2022-11-19T04:27:14.033Z,99880.47
2022-11-19T04:29:41.995Z,99885.47
2022-11-19T04:32:09.851Z,99882.06
2022-11-19T04:34:38.188Z,99879.72
2022-11-19T04:37:06.302Z,99880.81
2022-11-19T04:39:34.239Z,99879.09
2022-11-19T04:42:03.815Z,99882.84
2022-11-19T04:44:32.894Z,99887.38
2022-11-19T04:47:00.951Z,99889.22
2022-11-19T04:49:28.842Z,99889.53
2022-11-19T04:51:56.948Z,99894.56
2022-11-19T04:54:24.911Z,99898.78
2022-11-19T04:56:52.802Z,99902.22
2022-11-19T04:59:22.217Z,99900.41
2022-11-19T05:01:50.351Z,99896.97
2022-11-19T05:04:18.360Z,99892.47
2022-11-19T05:06:46.403Z,99905.72
2022-11-19T05:09:16.954Z,99904.38
2022-11-19T05:11:44.964Z,99907.72
2022-11-19T05:14:15.581Z,99908.66
2022-11-19T05:16:44.799Z,99904.47
2022-11-19T05:19:12.949Z,99899.78
2022-11-19T05:21:40.909Z,99894.56
2022-11-19T05:24:09.544Z,99898.94
2022-11-19T05:26:37.419Z,99890.38
2022-11-19T05:29:05.404Z,99894.56
2022-11-19T05:31:33.850Z,99901.13
2022-11-19T05:34:03.497Z,99913.34
2022-11-19T05:36:31.447Z,99913.97
2022-11-19T05:38:59.415Z,99907.78
2022-11-19T05:41:27.408Z,99917.09
2022-11-19T05:43:55.738Z,99914.38
2022-11-19T05:46:23.635Z,99910.94
2022-11-19T05:48:52.299Z,99913.97
2022-11-19T05:51:22.176Z,99919.56
2022-11-19T05:53:50.736Z,99932.03
2022-11-19T05:56:18.680Z,99931.19
2022-11-19T05:58:46.676Z,99926.38
2022-11-19T06:01:15.355Z,99921.88
2022-11-19T06:03:43.339Z,99927.94
2022-11-19T06:06:11.245Z,99936.28
2022-11-19T06:08:43.032Z,99933.38
2022-11-19T06:11:31.804Z,99936.09
2022-11-19T06:13:59.815Z,99938.72
2022-11-19T06:16:28.027Z,99940.47
2022-11-19T06:18:56.972Z,99934.19
2022-11-19T06:21:25.127Z,99940.53
2022-11-19T06:23:55.663Z,99945.66
2022-11-19T06:26:24.315Z,99946.22
2022-11-19T06:28:52.787Z,99950.66
2022-11-19T06:31:21.588Z,99962.91
2022-11-19T06:34:08.891Z,99969.38
2022-11-19T06:36:45.076Z,99969.47
2022-11-19T06:39:18.910Z,99964.84
2022-11-19T06:41:49.078Z,99965.47
2022-11-19T06:44:18.718Z,99964.97
2022-11-19T06:46:46.884Z,99963.09
2022-11-19T06:49:19.836Z,99972.16
2022-11-19T06:51:50.735Z,99974.63
2022-11-19T06:54:21.771Z,99973.03
2022-11-19T06:56:50.177Z,99971.16
2022-11-19T06:59:18.335Z,99968.22
2022-11-19T07:01:46.614Z,99975.19
2022-11-19T07:04:14.648Z,99984.16
2022-11-19T07:06:42.551Z,99987.31
2022-11-19T07:09:10.463Z,99985.31
2022-11-19T07:11:39.925Z,99982.91
2022-11-19T07:14:10.595Z,99981.22
2022-11-19T07:16:40.901Z,99992.19
2022-11-19T07:19:12.243Z,99989.03
2022-11-19T07:21:40.270Z,99988.75
2022-11-19T07:24:10.489Z,99990.41
2022-11-19T07:26:42.225Z,99990.59
2022-11-19T07:29:13.523Z,99994.69
2022-11-19T07:31:42.276Z,99998.53
2022-11-19T07:34:11.410Z,100001.44
2022-11-19T07:36:40.168Z,100004.56
2022-11-19T07:39:08.068Z,100012.22
2022-11-19T07:41:53.571Z,100014.81
2022-11-19T07:44:22.960Z,100012.66
2022-11-19T07:46:53.823Z,100018.72
2022-11-19T07:49:22.295Z,100021.50
2022-11-19T07:51:50.431Z,100021.13
2022-11-19T07:54:18.454Z,100025.75
2022-11-19T07:56:46.516Z,100026.16
2022-11-19T07:59:14.846Z,100019.31
2022-11-19T08:01:44.479Z,100021.41
2022-11-19T08:04:12.654Z,100031.38
2022-11-19T08:06:42.719Z,100033.78
2022-11-19T08:09:10.649Z,100027.88
2022-11-19T08:11:41.996Z,100033.19
2022-11-19T08:14:12.361Z,100031.63
2022-11-19T08:16:58.679Z,100036.84
2022-11-19T08:19:28.534Z,100032.91
2022-11-19T08:21:56.474Z,100033.97
2022-11-19T08:24:24.548Z,100037.94
2022-11-19T08:26:52.951Z,100031.78
2022-11-19T08:29:23.796Z,100029.06
2022-11-19T08:31:52.670Z,100031.13
2022-11-19T08:34:22.314Z,100038.47
2022-11-19T08:36:52.317Z,100043.28
2022-11-19T08:39:21.005Z,100042.22
2022-11-19T08:42:13.615Z,100043.72
2022-11-19T08:44:41.996Z,100041.41
2022-11-19T08:47:10.684Z,100044.47
2022-11-19T08:49:40.003Z,100049.41
2022-11-19T08:52:10.340Z,100050.44
2022-11-19T08:54:40.687Z,100044.88
2022-11-19T08:57:09.177Z,100043.94
2022-11-19T09:00:01.456Z,100050.00
2022-11-19T09:02:34.904Z,100048.63
2022-11-19T09:05:03.528Z,100049.44
2022-11-19T09:07:33.591Z,100055.53
2022-11-19T09:10:04.260Z,100061.47
2022-11-19T09:12:34.070Z,100065.19
2022-11-19T09:15:02.559Z,100067.00
2022-11-19T09:17:34.742Z,100070.44
2022-11-19T09:20:03.472Z,100071.38
2022-11-19T09:22:34.364Z,100076.88
2022-11-19T09:25:06.950Z,100084.63
2022-11-19T09:27:40.744Z,100082.19
2022-11-19T09:30:10.849Z,100091.53
2022-11-19T09:32:40.545Z,100088.06
2022-11-19T09:35:11.301Z,100094.88
2022-11-19T09:37:41.604Z,100092.69
2022-11-19T09:40:17.836Z,100097.34
2022-11-19T09:43:02.122Z,100093.53
2022-11-19T09:45:45.033Z,100100.31
2022-11-19T09:48:29.387Z,100102.56
2022-11-19T09:51:02.220Z,100108.31
2022-11-19T09:53:37.573Z,100107.19
2022-11-19T09:56:08.306Z,100106.59
2022-11-19T09:58:43.675Z,100112.97
2022-11-19T10:01:15.374Z,100122.47
2022-11-19T10:03:49.155Z,100111.00
2022-11-19T10:06:29.018Z,100108.56
2022-11-19T10:09:29.968Z,100110.16
2022-11-19T10:12:16.070Z,100106.03
2022-11-19T10:15:07.020Z,100092.59
2022-11-19T10:17:48.202Z,100104.13
2022-11-19T10:20:33.629Z,100104.94
2022-11-19T10:23:12.217Z,100105.28
2022-11-19T10:25:46.067Z,100100.56
2022-11-19T10:28:17.528Z,100108.69
2022-11-19T10:30:51.388Z,100110.03
2022-11-19T10:33:26.607Z,100107.97
2022-11-19T10:35:59.910Z,100100.22
2022-11-19T10:38:34.806Z,100110.72
2022-11-19T10:41:14.187Z,100103.44
2022-11-19T10:43:49.362Z,100104.16
2022-11-19T10:46:24.769Z,100114.22
2022-11-19T10:48:57.294Z,100109.28
2022-11-19T10:51:30.401Z,100119.09
2022-11-19T10:54:00.633Z,100112.19
2022-11-19T10:56:41.093Z,100124.13
2022-11-19T10:59:13.602Z,100115.63
2022-11-19T11:01:48.485Z,100111.06
2022-11-19T11:04:19.872Z,100114.78
2022-11-19T11:06:55.838Z,100117.31
2022-11-19T11:09:35.706Z,100116.28
2022-11-19T11:12:44.173Z,100116.06
2022-11-19T11:15:17.321Z,100121.31
2022-11-19T11:17:47.566Z,100124.03
2022-11-19T11:20:26.269Z,100112.56
2022-11-19T11:23:07.343Z,100117.97
2022-11-19T11:25:36.188Z,100116.97
2022-11-19T11:28:10.078Z,100120.22
2022-11-19T11:30:40.734Z,100118.47
2022-11-19T11:33:28.825Z,100108.19
2022-11-19T11:35:59.470Z,100092.44
2022-11-19T11:38:30.407Z,100099.75
2022-11-19T11:44:03.582Z,100095.94
2022-11-19T11:46:38.132Z,100089.56
2022-11-19T11:49:12.423Z,100088.75
2022-11-19T11:51:41.991Z,100095.69
2022-11-19T11:54:18.952Z,100094.88
2022-11-19T11:56:47.728Z,100091.13
2022-11-19T11:59:25.925Z,100104.19
2022-11-19T12:01:55.517Z,100107.06
2022-11-19T12:04:24.832Z,100087.25
2022-11-19T12:07:06.580Z,100099.38
2022-11-19T12:09:46.379Z,100103.13
2022-11-19T12:12:28.903Z,100104.16
2022-11-19T12:15:07.963Z,100103.94
2022-11-19T12:17:45.321Z,100108.44
2022-11-19T12:20:39.643Z,100102.28
2022-11-19T12:23:23.518Z,100111.06
2022-11-19T12:26:04.500Z,100112.13
2022-11-19T12:28:46.177Z,100109.81
2022-11-19T12:31:32.608Z,100101.97
2022-11-19T12:34:24.166Z,100096.38
2022-11-19T12:37:02.652Z,100088.22
2022-11-19T12:39:43.351Z,100088.88
2022-11-19T12:42:39.690Z,100090.28
2022-11-19T12:45:18.552Z,100087.44
2022-11-19T12:48:13.188Z,100097.34
2022-11-19T12:50:52.120Z,100097.34
2022-11-19T12:53:34.924Z,100091.47
2022-11-19T12:56:14.860Z,100096.75
2022-11-19T12:58:54.952Z,100095.63
2022-11-19T13:01:27.582Z,100105.50
2022-11-19T13:04:04.990Z,100109.47
2022-11-19T13:06:39.408Z,100109.00
2022-11-19T13:09:15.209Z,100111.50
2022-11-19T13:11:46.787Z,100106.16
2022-11-19T13:14:24.575Z,100108.44
2022-11-19T13:16:55.749Z,100099.97
2022-11-19T13:19:30.295Z,100105.41
2022-11-19T13:22:03.736Z,100110.31
2022-11-19T13:24:36.195Z,100121.19
2022-11-19T13:27:06.849Z,100122.25
2022-11-19T13:29:41.881Z,100116.09
2022-11-19T13:32:22.064Z,100114.53
2022-11-19T13:35:03.454Z,100112.59
2022-11-19T13:37:44.777Z,100097.22
2022-11-19T13:40:22.067Z,100104.84
2022-11-19T13:43:30.916Z,100098.81
2022-11-19T13:46:06.502Z,100103.13
2022-11-19T13:48:39.605Z,100099.66
2022-11-19T13:51:21.840Z,100102.38
2022-11-19T13:53:50.425Z,100103.00
2022-11-19T13:56:18.560Z,100096.56
2022-11-19T13:58:52.217Z,100098.25
2022-11-19T14:01:46.006Z,100105.34
2022-11-19T14:04:36.594Z,100107.72
2022-11-19T14:07:35.905Z,100103.13
2022-11-19T14:10:14.168Z,100110.97
2022-11-19T14:12:56.076Z,100118.16
2022-11-19T14:15:55.018Z,100113.75
2022-11-19T14:18:44.534Z,100118.34
2022-11-19T14:22:09.324Z,100123.47
2022-11-19T14:25:18.177Z,100121.19
2022-11-19T14:27:46.621Z,100122.41
2022-11-19T14:30:20.899Z,100127.31
2022-11-19T14:32:51.614Z,100119.09
2022-11-19T14:35:39.967Z,100115.84
2022-11-19T14:38:39.516Z,100116.97
2022-11-19T14:41:23.838Z,100116.03
2022-11-19T14:44:10.919Z,100128.78
2022-11-19T14:46:41.761Z,100129.09
2022-11-19T14:49:28.019Z,100132.34
2022-11-19T14:51:58.066Z,100133.28
2022-11-19T14:54:37.258Z,100132.34
2022-11-19T14:57:28.081Z,100137.56
2022-11-19T15:00:00.298Z,100122.09
2022-11-19T15:02:39.500Z,100127.50
2022-11-19T15:05:18.494Z,100128.72
2022-11-19T15:07:54.517Z,100133.59
2022-11-19T15:10:49.337Z,100129.97
2022-11-19T15:13:30.603Z,100127.06
2022-11-19T15:16:11.189Z,100129.47
2022-11-19T15:19:08.901Z,100138.06
2022-11-19T15:22:01.927Z,100143.00
2022-11-19T15:24:41.983Z,100151.78
2022-11-19T15:27:22.405Z,100140.69
2022-11-19T15:30:08.333Z,100138.16
2022-11-19T15:32:52.905Z,100142.00
2022-11-19T15:35:36.774Z,100142.00
2022-11-19T15:38:13.185Z,100146.38
2022-11-19T15:40:47.136Z,100157.03
2022-11-19T15:43:26.251Z,100161.69
2022-11-19T15:46:01.052Z,100153.75
2022-11-19T15:48:36.875Z,100154.19
2022-11-19T15:51:07.614Z,100157.19
2022-11-19T15:53:35.593Z,100157.56
2022-11-19T15:56:08.773Z,100139.28
2022-11-19T15:58:41.127Z,100145.28
2022-11-19T16:01:15.799Z,100153.09
2022-11-19T16:03:43.938Z,100159.06
2022-11-19T16:06:21.851Z,100160.94
2022-11-19T16:08:56.357Z,100160.38
2022-11-19T16:11:47.039Z,100157.97
2022-11-19T16:14:38.440Z,100166.53
2022-11-19T16:17:32.324Z,100164.88
2022-11-19T16:20:08.430Z,100164.88
2022-11-19T16:22:40.520Z,100160.16
2022-11-19T16:25:13.528Z,100155.16
2022-11-19T16:27:43.648Z,100163.06
2022-11-19T16:30:21.708Z,100162.13
2022-11-19T16:32:51.743Z,100156.19
2022-11-19T16:35:25.453Z,100164.28
2022-11-19T16:37:54.932Z,100162.53
2022-11-19T16:40:24.849Z,100161.97
2022-11-19T16:42:56.421Z,100155.16
2022-11-19T16:45:27.209Z,100170.44
2022-11-19T16:47:59.189Z,100168.94
2022-11-19T16:50:32.131Z,100162.69
2022-11-19T16:53:01.491Z,100161.38
2022-11-19T16:55:46.138Z,100153.75
2022-11-19T16:58:17.672Z,100152.28
2022-11-19T17:00:51.037Z,100157.16
2022-11-19T17:03:39.631Z,100162.06
2022-11-19T17:06:10.312Z,100159.16
2022-11-19T17:08:42.167Z,100161.91
2022-11-19T17:11:36.694Z,100168.88
2022-11-19T17:14:19.453Z,100163.47
2022-11-19T17:16:48.849Z,100164.00
2022-11-19T17:19:26.439Z,100154.03
2022-11-19T17:21:59.233Z,100165.13
2022-11-19T17:24:33.193Z,100172.09
2022-11-19T17:27:01.421Z,100176.38
2022-11-19T17:29:29.407Z,100174.25
2022-11-19T17:31:58.062Z,100180.50
2022-11-19T17:34:32.284Z,100176.66
2022-11-19T17:37:00.821Z,100183.75
2022-11-19T17:39:29.558Z,100183.53
2022-11-19T17:42:15.275Z,100183.53
2022-11-19T17:44:43.450Z,100176.94
2022-11-19T17:47:21.872Z,100180.91
2022-11-19T17:49:53.274Z,100169.41
2022-11-19T17:52:23.945Z,100171.94
2022-11-19T17:54:53.958Z,100179.56
2022-11-19T17:57:22.931Z,100182.78
2022-11-19T17:59:51.133Z,100188.41
2022-11-19T18:02:21.852Z,100189.16
2022-11-19T18:04:52.898Z,100188.13
2022-11-19T18:07:21.399Z,100193.41
2022-11-19T18:09:49.409Z,100188.28
2022-11-19T18:12:20.333Z,100195.66
2022-11-19T18:14:48.674Z,100196.59
2022-11-19T18:17:17.524Z,100216.00
2022-11-19T18:19:45.822Z,100208.28
2022-11-19T18:22:20.455Z,100214.91
2022-11-19T18:24:49.209Z,100207.53
2022-11-19T18:27:17.695Z,100206.78
2022-11-19T18:29:45.999Z,100203.63
2022-11-19T18:32:16.863Z,100205.78
2022-11-19T18:34:45.430Z,100199.81
2022-11-19T18:37:13.500Z,100203.53
2022-11-19T18:39:45.845Z,100212.88
2022-11-19T18:42:13.819Z,100206.50
2022-11-19T18:44:43.460Z,100210.91
2022-11-19T18:47:13.025Z,100218.09
2022-11-19T18:49:41.463Z,100222.94
2022-11-19T18:52:15.528Z,100220.50
2022-11-19T18:54:45.053Z,100226.75
2022-11-19T18:57:32.109Z,100225.94
2022-11-19T19:00:00.056Z,100221.72
2022-11-19T19:02:27.900Z,100226.00
2022-11-19T19:04:55.849Z,100225.28
2022-11-19T19:07:23.976Z,100233.19
2022-11-19T19:09:54.040Z,100224.63
2022-11-19T19:12:22.333Z,100227.16
2022-11-19T19:14:52.387Z,100233.03
2022-11-19T19:17:20.673Z,100230.50
2022-11-19T19:19:50.859Z,100222.59
2022-11-19T19:22:21.317Z,100235.34
2022-11-19T19:24:51.574Z,100234.03
2022-11-19T19:27:23.491Z,100228.91
2022-11-19T19:29:51.337Z,100234.41
2022-11-19T19:32:19.381Z,100234.56
2022-11-19T19:34:47.555Z,100230.13
2022-11-19T19:37:15.598Z,100237.00
2022-11-19T19:39:45.745Z,100234.41
2022-11-19T19:42:15.152Z,100233.81
2022-11-19T19:44:44.692Z,100235.78
2022-11-19T19:47:15.216Z,100245.56
2022-11-19T19:49:43.494Z,100244.72
2022-11-19T19:52:11.740Z,100253.00
2022-11-19T19:54:40.832Z,100254.28
2022-11-19T19:57:11.155Z,100260.19
2022-11-19T19:59:39.238Z,100261.84
2022-11-19T20:02:10.823Z,100260.91
2022-11-19T20:04:39.196Z,100259.16
2022-11-19T20:07:07.168Z,100257.47
2022-11-19T20:09:38.547Z,100260.09
2022-11-19T20:12:07.080Z,100259.69
2022-11-19T20:14:37.068Z,100257.91
2022-11-19T20:17:05.604Z,100262.97
2022-11-19T20:19:34.956Z,100263.63
2022-11-19T20:22:02.914Z,100265.13
2022-11-19T20:24:31.147Z,100256.72
2022-11-19T20:26:59.330Z,100260.91
2022-11-19T20:29:28.258Z,100248.88
2022-11-19T20:32:00.239Z,100250.38
2022-11-19T20:34:29.256Z,100243.63
2022-11-19T20:36:58.832Z,100237.59
2022-11-19T20:39:29.117Z,100236.38
2022-11-19T20:42:16.629Z,100237.41
2022-11-19T20:44:44.954Z,100230.59
2022-11-19T20:47:13.388Z,100239.25
2022-11-19T20:49:41.627Z,100246.34
2022-11-19T20:52:13.238Z,100246.00
2022-11-19T20:54:44.151Z,100251.72
2022-11-19T20:57:12.230Z,100245.09
2022-11-19T20:59:40.237Z,100243.06
2022-11-19T21:02:10.249Z,100237.94
2022-11-19T21:04:38.724Z,100239.88
2022-11-19T21:07:07.425Z,100245.75
2022-11-19T21:09:37.491Z,100252.66
2022-11-19T21:12:05.941Z,100257.72
2022-11-19T21:14:33.887Z,100253.31
2022-11-19T21:17:02.210Z,100253.25
2022-11-19T21:19:32.669Z,100247.16
2022-11-19T21:22:00.912Z,100249.38
2022-11-19T21:24:29.046Z,100256.47
2022-11-19T21:27:03.035Z,100251.06
2022-11-19T21:29:31.590Z,100247.38
2022-11-19T21:32:01.638Z,100246.34
2022-11-19T21:34:29.743Z,100252.97
2022-11-19T21:36:58.400Z,100251.28
2022-11-19T21:39:26.736Z,100262.56
2022-11-19T21:41:54.745Z,100260.22
2022-11-19T21:44:24.374Z,100255.84
2022-11-19T21:46:52.325Z,100253.16
2022-11-19T21:49:20.616Z,100253.91
2022-11-19T21:51:48.947Z,100241.69
2022-11-19T21:54:17.009Z,100242.53
2022-11-19T21:56:45.378Z,100242.34
2022-11-19T21:59:14.075Z,100241.13
2022-11-19T22:01:43.593Z,100239.53
2022-11-19T22:04:13.722Z,100241.78
2022-11-19T22:06:42.540Z,100246.81
2022-11-19T22:09:10.502Z,100243.28
2022-11-19T22:11:40.754Z,100246.66
2022-11-19T22:14:10.631Z,100238.84
2022-11-19T22:16:41.336Z,100242.94
2022-11-19T22:19:12.628Z,100236.13
2022-11-19T22:21:41.208Z,100230.81
2022-11-19T22:24:09.346Z,100228.19
2022-11-19T22:26:56.640Z,100231.66
2022-11-19T22:29:26.639Z,100224.56
2022-11-19T22:31:55.129Z,100228.66
2022-11-19T22:34:27.230Z,100231.03
2022-11-19T22:36:55.592Z,100233.81
2022-11-19T22:39:25.512Z,100238.09
2022-11-19T22:41:53.431Z,100236.50
2022-11-19T22:44:21.523Z,100240.81
2022-11-19T22:46:50.037Z,100244.50
2022-11-19T22:49:18.138Z,100239.09
2022-11-19T22:51:47.633Z,100239.09
2022-11-19T22:54:16.063Z,100230.47
2022-11-19T22:56:44.047Z,100228.59
2022-11-19T22:59:14.902Z,100224.31
2022-11-19T23:01:42.795Z,100221.63
2022-11-19T23:04:15.534Z,100223.38
2022-11-19T23:06:43.382Z,100225.03
2022-11-19T23:09:14.844Z,100225.97
2022-11-19T23:12:00.604Z,100224.50
2022-11-19T23:14:29.977Z,100220.09
2022-11-19T23:16:58.335Z,100218.44
2022-11-19T23:19:26.325Z,100216.00
2022-11-19T23:21:54.525Z,100219.34
2022-11-19T23:24:23.898Z,100216.91
2022-11-19T23:26:51.952Z,100213.41
2022-11-19T23:29:22.305Z,100214.16
2022-11-19T23:31:50.553Z,100205.19
2022-11-19T23:34:18.793Z,100193.00
2022-11-19T23:36:46.862Z,100199.16
2022-11-19T23:39:16.654Z,100201.84
2022-11-19T23:41:47.019Z,100206.13
2022-11-19T23:44:14.955Z,100211.25
2022-11-19T23:46:42.973Z,100208.66
2022-11-19T23:49:12.824Z,100210.31
2022-11-19T23:51:41.214Z,100202.56
2022-11-19T23:54:09.838Z,100208.72
2022-11-19T23:56:40.093Z,100214.06
2022-11-19T23:59:10.296Z,100199.16
